Rock Springs, Wisconsin
Current Conditions -  °F | °C
As of 6:15 AM on Monday 20 Oct 2014 (Local Time) from KC35 Reporting Station
Clear Clear  
Wind Chill: 45°   Ceiling: Unl
Heat Index: 48°   Visibility: 10mi
Dew Point: 43°   Wind: 6mph
Humidity: 84%   Direction: 310°NW
Pressure: 29.85"   Gusts: NA
Location:  43.49°N, 89.92°W
Report Text: KC35 201115Z AUTO 31005KT 10SM CLR 09/06 A2985 RMK AO2 T00870061
Loading
Personal Weather Stations






























Interactive Weather Map New forecast layout! Learn more

10-Day Weather Forecast

Advertisements
Track Severe Weather on mobile